Terminal Aerodrome Forecast
Issued by NWS

Home | Current Version | Previous Version | Text Only | Print | Product List | Glossary On
Versions: 1 2 3 4 5 6 7 8 9 10 11 12 13 14 15 16 17 18
000
FTUS43 KSGF 241400 AAA
TAFJLN
TAF AMD
KJLN 241446Z 2415/2512 15010KT P6SM VCSH BKN020 OVC045
      WS020/17040KT
     FM241600 18016G26KT P6SM SCT035 BKN070
     FM250200 18016G26KT P6SM SCT030 OVC050 WS020/21040KT
      TEMPO 2502/2506 6SM -TSRA OVC035CB=

USA.gov is the U.S. government's official web portal to all federal, state and local government web resources and services.